Share

Uehling, NE

6 miles south of Craig (KNECRAIG2) Elev 1290 ft | 41.70 °N, 96.36 °W | Change Station

Current weather conditions updated 1 second ago

Clear
Clear
72.2 °F
Feels Like 76 °F
N
16.0
Wind Variable Wind from North
Gusts 17.0 mph
Sunrise 6:36 AM
Sunset 8:13 PM
Moon Waning Gibbous

Today is forecast to be Much Cooler than yesterday.

Pressure 30.02 in
Visibility 10.0 miles
Clouds Clear
Heat Index 76 °F
Dew Point 40 °F
Humidity 31%
Rainfall 0.04 in
Snow Depth Not available.
UV 9 out of 16
Pollen 6.10 out of 12
Air Quality Not available.
Flu Activity Sporadic
METAR KBTA 211655Z AUTO 36025G35KT 10SM CLR 20/02 A3002 RMK AO2 T02010016

More Conditions Fewer Conditions

Pressure 30.02 in
Visibility 10.0 miles
Clouds Clear
Heat Index 76 °F
Dew Point 40 °F
Humidity 31%
Rainfall 0.04 in
Snow Depth Not available.
UV 9 out of 16
Pollen 6.10 out of 12
Air Quality Not available.
Flu Activity Sporadic
METAR KBTA 211655Z AUTO 36025G35KT 10SM CLR 20/02 A3002 RMK AO2 T02010016

More Conditions Fewer Conditions

10-Day Weather Forecast

Almanac

Astronomy

Apr. 21, 2014 Rise Set
Actual Time 6:36 AM CDT 8:13 PM CDT
Civil Twilight 6:07 AM CDT 8:42 PM CDT
Nautical Twilight 5:31 AM CDT 9:18 PM CDT
Astronomical Twilight 4:54 AM CDT 9:56 PM CDT
Moon 1:45 AM CDT 12:03 PM CDT
Length of Visible Light 14h 35m
Length of Day
13h 36m
Tomorrow will be 2m 35s longer.
Waning Gibbous, 57% of the Moon is Illuminated
Today
Waning Gibbous
Apr 22
Last Quarter
Apr 29
New
May 6
First Quarter
May 14
Full

Today's Extremes

State Highs State Lows

Community

  • Glass on White Lake
    Glass on White Lake
  • Bright Eyes
    Bright Eyes
  • Snowy Robin
    Snowy Robin
  • Spring Crocus
    Spring Crocus
  • Sun Pillar and Geese
    Sun Pillar and Geese

WunderPhotos

Upload Photos

1,703,692 photos uploaded!

WunderBlogs® & News

Nearby

Snow Depth

Station Depth Elevation
No new snow has been reported.

Coastal Water Temperatures

Place Temperature
No Stations Reporting

Earthquake Activity

City Distance Mag. Time & Date
No recent earthquake activity has been reported nearby.
Minimum magnitude displayed is 2.5.

Nearby Weather Stations

Station Location Temp. Heat Index Dew Point Humidity Wind Precip. Elev Updated Type
6 miles south of Craig, Craig, NE 72.2 °F 76 °F 40 °F 31% North  at  16.0 mph 0.00 in / hr 1290 ft 12:04 PM CDT Rapid Fire
Southwest Hill, Hooper, NE 69.1 °F - 42 °F 37% NNW  at  17.0 mph 0.00 in / hr 1320 ft 12:04 PM CDT Rapid Fire
HADS MAPLE CREEK NEAR NICKERSON 4NW NE, Nickerson, NE 65 °F - - - North  at  - 0.00 in / hr 1222 ft 10:45 AM CDT MADIS
MesoWest TROXL1 , Ames, NE 67 °F - - - North  at  - 0.00 in / hr 1223 ft 11:00 AM CDT MADIS
MesoWest KENNAR , Kennard, NE 62 °F - - - North  at  - 0.00 in / hr 1187 ft 10:25 AM CDT MADIS

Show More Stations Show Fewer Stations

What do you think?

We're not finished. Please let us know what you like, what you don't like, and what you are still missing.